SAWG/RGL METAR and TAF weather

Enter ICAO airport designator
Station Type Date Time Source
SAWG METAR 2019/12/16 06:00 UTC NOAA

SAWG 160600Z 25020G30KT 9999 SCT030 09/07 Q1006


Station Type Date Time Source
SAWG Decoded METAR 2019/12/16 06:00 UTC NOAA

Rio Gallegos Aerodrome, Argentina (SAWG) 51-37S 069-17W 19M
Dec 16, 2019 - 01:00 AM EST / 2019.12.16 0600 UTC
Wind: from the WSW (250 degrees) at 23 MPH (20 KT) gusting to 35 MPH (30 KT):0
Visibility: greater than 7 mile(s):0
Sky conditions: partly cloudy
Temperature: 48 F (9 C)
Dew Point: 44 F (7 C)
Relative Humidity: 87%
Pressure (altimeter): 29.71 in. Hg (1006 hPa)
ob: SAWG 160600Z 25020G30KT 9999 SCT030 09/07 Q1006
cycle: 6

Station Type Date Time Source
SAWG TAF 2019/12/16 06:25 UTC NOAA

TAF SAWG 160500Z 1606/1706 25030G45KT 8000 SHRA SCT025 SCT040TCU OVC050 TX17/1619Z TN06/1612Z
BECMG 1618/1620 23010KT 9999 -RADZ SCT035 OVC060
BECMG 1701/1703 34015KT 3000 SHRA SCT020 OVC045

Example: see airport list